sensor_id;sensor_type;location;lat;lon;timestamp;pressure;altitude;pressure_sealevel;temperature;humidity
63190;BME280;49286;44.460;26.114;2023-03-30T00:02:21;101359.72;;;1.33;100.00
63190;BME280;49286;44.460;26.114;2023-03-30T00:04:49;101340.50;;;1.28;100.00
63190;BME280;49286;44.460;26.114;2023-03-30T00:07:15;101238.72;;;0.44;100.00
63190;BME280;49286;44.460;26.114;2023-03-30T00:09:40;101379.13;;;1.09;100.00
63190;BME280;49286;44.460;26.114;2023-03-30T00:12:11;101266.28;;;0.60;100.00
63190;BME280;49286;44.460;26.114;2023-03-30T00:14:39;101271.44;;;0.60;100.00
63190;BME280;49286;44.460;26.114;2023-03-30T00:17:07;101273.28;;;0.62;100.00
63190;BME280;49286;44.460;26.114;2023-03-30T00:19:33;101320.94;;;0.84;100.00
63190;BME280;49286;44.460;26.114;2023-03-30T00:22:05;101384.63;;;1.15;100.00
63190;BME280;49286;44.460;26.114;2023-03-30T00:24:32;101378.72;;;1.01;100.00
63190;BME280;49286;44.460;26.114;2023-03-30T00:26:58;101345.56;;;0.77;100.00
63190;BME280;49286;44.460;26.114;2023-03-30T00:29:23;101375.91;;;1.13;100.00
63190;BME280;49286;44.460;26.114;2023-03-30T00:31:49;101362.22;;;0.99;100.00
63190;BME280;49286;44.460;26.114;2023-03-30T00:34:14;101376.94;;;1.16;100.00
63190;BME280;49286;44.460;26.114;2023-03-30T00:36:40;101383.41;;;1.24;100.00
63190;BME280;49286;44.460;26.114;2023-03-30T00:39:06;101386.16;;;1.27;100.00
63190;BME280;49286;44.460;26.114;2023-03-30T00:41:33;101255.53;;;0.52;92.62
63190;BME280;49286;44.460;26.114;2023-03-30T00:44:08;101393.34;;;1.50;87.90
63190;BME280;49286;44.460;26.114;2023-03-30T00:46:53;101238.44;;;0.71;80.81
63190;BME280;49286;44.460;26.114;2023-03-30T00:49:18;101262.81;;;0.76;84.70
63190;BME280;49286;44.460;26.114;2023-03-30T00:51:46;101374.13;;;1.44;77.37
63190;BME280;49286;44.460;26.114;2023-03-30T00:54:17;101386.06;;;1.59;75.19
63190;BME280;49286;44.460;26.114;2023-03-30T00:56:45;101304.81;;;1.21;75.64
63190;BME280;49286;44.460;26.114;2023-03-30T00:59:11;101396.66;;;1.63;78.30
63190;BME280;49286;44.460;26.114;2023-03-30T01:01:39;101382.84;;;1.46;79.29
63190;BME280;49286;44.460;26.114;2023-03-30T01:04:07;101396.03;;;1.35;83.73
63190;BME280;49286;44.460;26.114;2023-03-30T01:06:34;101357.72;;;1.27;78.77
63190;BME280;49286;44.460;26.114;2023-03-30T01:09:04;101389.63;;;1.44;77.22
63190;BME280;49286;44.460;26.114;2023-03-30T01:11:31;101353.38;;;1.26;83.38
63190;BME280;49286;44.460;26.114;2023-03-30T01:13:59;101297.16;;;0.58;80.95
63190;BME280;49286;44.460;26.114;2023-03-30T01:17:21;101362.53;;;1.05;78.85
63190;BME280;49286;44.460;26.114;2023-03-30T01:28:56;101351.72;;;0.96;79.37
63190;BME280;49286;44.460;26.114;2023-03-30T01:34:38;101416.88;;;0.90;75.85
63190;BME280;49286;44.460;26.114;2023-03-30T01:37:31;101414.78;;;0.99;77.18
63190;BME280;49286;44.460;26.114;2023-03-30T01:40:15;101298.25;;;0.31;74.10
63190;BME280;49286;44.460;26.114;2023-03-30T01:47:55;101406.81;;;1.11;71.71
63190;BME280;49286;44.460;26.114;2023-03-30T01:50:26;101381.69;;;0.92;72.29
63190;BME280;49286;44.460;26.114;2023-03-30T01:53:04;101341.25;;;0.61;72.35
63190;BME280;49286;44.460;26.114;2023-03-30T01:55:57;101279.13;;;0.27;73.10
63190;BME280;49286;44.460;26.114;2023-03-30T01:58:34;101397.97;;;0.91;72.48
63190;BME280;49286;44.460;26.114;2023-03-30T02:01:03;101288.56;;;0.27;73.32
63190;BME280;49286;44.460;26.114;2023-03-30T02:03:32;101386.34;;;0.83;71.36
63190;BME280;49286;44.460;26.114;2023-03-30T02:06:06;101403.13;;;0.91;74.57
63190;BME280;49286;44.460;26.114;2023-03-30T02:08:33;101407.69;;;0.95;74.56
63190;BME280;49286;44.460;26.114;2023-03-30T02:11:02;101410.34;;;0.97;76.67
63190;BME280;49286;44.460;26.114;2023-03-30T02:13:29;101291.31;;;0.30;77.18
63190;BME280;49286;44.460;26.114;2023-03-30T02:16:02;101404.47;;;0.68;75.21
63190;BME280;49286;44.460;26.114;2023-03-30T02:18:29;101364.72;;;0.50;78.02
63190;BME280;49286;44.460;26.114;2023-03-30T02:20:55;101416.19;;;0.78;82.36
63190;BME280;49286;44.460;26.114;2023-03-30T02:23:27;101276.78;;;-0.14;81.05
63190;BME280;49286;44.460;26.114;2023-03-30T02:25:55;101438.84;;;0.67;82.39
63190;BME280;49286;44.460;26.114;2023-03-30T02:28:21;101310.84;;;-0.05;77.41
63190;BME280;49286;44.460;26.114;2023-03-30T02:30:47;101308.53;;;-0.01;76.28
63190;BME280;49286;44.460;26.114;2023-03-30T02:36:16;101425.00;;;0.81;81.30
63190;BME280;49286;44.460;26.114;2023-03-30T02:41:40;101433.22;;;0.74;75.70
63190;BME280;49286;44.460;26.114;2023-03-30T02:50:17;101439.50;;;0.48;83.28
63190;BME280;49286;44.460;26.114;2023-03-30T02:52:59;101426.47;;;0.47;82.71
63190;BME280;49286;44.460;26.114;2023-03-30T02:56:04;101426.22;;;0.57;92.66
63190;BME280;49286;44.460;26.114;2023-03-30T02:58:40;101429.06;;;0.47;91.00
63190;BME280;49286;44.460;26.114;2023-03-30T03:03:41;101421.94;;;0.57;88.36
63190;BME280;49286;44.460;26.114;2023-03-30T03:06:08;101439.31;;;0.45;85.38
63190;BME280;49286;44.460;26.114;2023-03-30T03:08:36;101422.88;;;0.28;82.35
63190;BME280;49286;44.460;26.114;2023-03-30T03:11:04;101449.03;;;0.49;80.62
63190;BME280;49286;44.460;26.114;2023-03-30T03:13:32;101304.34;;;-0.28;81.44
63190;BME280;49286;44.460;26.114;2023-03-30T03:15:57;101418.13;;;0.36;85.49
63190;BME280;49286;44.460;26.114;2023-03-30T03:18:25;101309.16;;;-0.19;88.13
63190;BME280;49286;44.460;26.114;2023-03-30T03:20:50;101441.88;;;0.60;91.20
63190;BME280;49286;44.460;26.114;2023-03-30T03:23:16;101331.31;;;-0.08;87.04
63190;BME280;49286;44.460;26.114;2023-03-30T03:25:41;101346.69;;;-0.25;88.01
63190;BME280;49286;44.460;26.114;2023-03-30T03:28:07;101312.63;;;-0.34;88.35
63190;BME280;49286;44.460;26.114;2023-03-30T03:30:33;101430.22;;;0.37;89.29
63190;BME280;49286;44.460;26.114;2023-03-30T03:32:58;101441.81;;;0.29;88.87
63190;BME280;49286;44.460;26.114;2023-03-30T03:35:24;101319.75;;;-0.30;94.68
63190;BME280;49286;44.460;26.114;2023-03-30T03:37:49;101436.38;;;0.39;96.37
63190;BME280;49286;44.460;26.114;2023-03-30T03:40:16;101319.81;;;-0.28;100.00
63190;BME280;49286;44.460;26.114;2023-03-30T03:42:42;101420.63;;;0.34;100.00
63190;BME280;49286;44.460;26.114;2023-03-30T03:45:07;101456.25;;;0.40;99.54
63190;BME280;49286;44.460;26.114;2023-03-30T03:47:34;101442.69;;;-0.01;97.91
63190;BME280;49286;44.460;26.114;2023-03-30T03:49:59;101414.31;;;0.14;100.00
63190;BME280;49286;44.460;26.114;2023-03-30T03:52:31;101461.22;;;0.52;95.13
63190;BME280;49286;44.460;26.114;2023-03-30T03:54:56;101460.31;;;0.51;86.83
63190;BME280;49286;44.460;26.114;2023-03-30T03:57:22;101460.41;;;0.53;90.61
63190;BME280;49286;44.460;26.114;2023-03-30T03:59:48;101355.97;;;-0.13;95.94
63190;BME280;49286;44.460;26.114;2023-03-30T04:02:15;101476.72;;;0.52;91.15
63190;BME280;49286;44.460;26.114;2023-03-30T04:04:40;101487.03;;;0.52;88.37
63190;BME280;49286;44.460;26.114;2023-03-30T04:07:06;101487.03;;;0.52;85.33
63190;BME280;49286;44.460;26.114;2023-03-30T04:09:31;101342.78;;;-0.33;95.11
63190;BME280;49286;44.460;26.114;2023-03-30T04:11:57;101368.94;;;-0.27;91.60
63190;BME280;49286;44.460;26.114;2023-03-30T04:14:22;101354.59;;;-0.36;89.99
63190;BME280;49286;44.460;26.114;2023-03-30T04:16:48;101463.88;;;0.38;92.08
63190;BME280;49286;44.460;26.114;2023-03-30T04:19:15;101497.81;;;0.45;95.87
63190;BME280;49286;44.460;26.114;2023-03-30T04:21:41;101384.66;;;-0.22;89.81
63190;BME280;49286;44.460;26.114;2023-03-30T04:24:13;101468.78;;;0.34;88.29
63190;BME280;49286;44.460;26.114;2023-03-30T04:26:38;101336.38;;;-0.39;86.85
63190;BME280;49286;44.460;26.114;2023-03-30T04:29:06;101518.19;;;0.55;83.51
63190;BME280;49286;44.460;26.114;2023-03-30T04:31:32;101528.44;;;0.68;80.25
63190;BME280;49286;44.460;26.114;2023-03-30T04:33:59;101495.94;;;0.57;83.79
63190;BME280;49286;44.460;26.114;2023-03-30T04:36:27;101516.69;;;0.73;83.17
63190;BME280;49286;44.460;26.114;2023-03-30T04:38:53;101534.41;;;0.82;78.68
63190;BME280;49286;44.460;26.114;2023-03-30T04:41:30;101397.78;;;-0.04;80.00
63190;BME280;49286;44.460;26.114;2023-03-30T04:44:06;101405.22;;;0.06;78.11
63190;BME280;49286;44.460;26.114;2023-03-30T04:46:33;101513.38;;;0.76;74.22
63190;BME280;49286;44.460;26.114;2023-03-30T04:49:00;101536.53;;;0.74;72.86
63190;BME280;49286;44.460;26.114;2023-03-30T04:51:25;101416.09;;;0.15;69.51
63190;BME280;49286;44.460;26.114;2023-03-30T04:53:51;101542.25;;;0.98;70.53
63190;BME280;49286;44.460;26.114;2023-03-30T04:56:16;101496.53;;;0.82;71.50
63190;BME280;49286;44.460;26.114;2023-03-30T04:58:42;101408.44;;;0.02;69.67
63190;BME280;49286;44.460;26.114;2023-03-30T05:01:07;101510.59;;;0.88;68.66
63190;BME280;49286;44.460;26.114;2023-03-30T05:03:33;101435.19;;;0.49;68.38
63190;BME280;49286;44.460;26.114;2023-03-30T05:05:59;101536.81;;;1.25;66.91
63190;BME280;49286;44.460;26.114;2023-03-30T05:08:25;101533.69;;;1.31;66.77
63190;BME280;49286;44.460;26.114;2023-03-30T05:10:51;101406.44;;;0.57;67.16
63190;BME280;49286;44.460;26.114;2023-03-30T05:13:16;101492.47;;;1.02;67.77
63190;BME280;49286;44.460;26.114;2023-03-30T05:15:42;101533.72;;;1.47;66.69
63190;BME280;49286;44.460;26.114;2023-03-30T05:18:07;101515.63;;;1.47;67.37
63190;BME280;49286;44.460;26.114;2023-03-30T05:20:34;101425.97;;;0.98;64.33
63190;BME280;49286;44.460;26.114;2023-03-30T05:22:59;101510.22;;;1.75;64.32
63190;BME280;49286;44.460;26.114;2023-03-30T05:25:25;101529.25;;;1.92;63.09
63190;BME280;49286;44.460;26.114;2023-03-30T05:27:51;101384.41;;;1.43;61.72
63190;BME280;49286;44.460;26.114;2023-03-30T05:30:16;101508.25;;;3.25;59.01
63190;BME280;49286;44.460;26.114;2023-03-30T05:32:42;101364.63;;;4.02;54.80
63190;BME280;49286;44.460;26.114;2023-03-30T05:35:07;101495.25;;;5.25;51.67
63190;BME280;49286;44.460;26.114;2023-03-30T05:37:33;101501.44;;;6.21;49.74
63190;BME280;49286;44.460;26.114;2023-03-30T05:39:59;101381.56;;;6.22;48.94
63190;BME280;49286;44.460;26.114;2023-03-30T05:42:24;101392.84;;;6.48;46.86
63190;BME280;49286;44.460;26.114;2023-03-30T05:44:50;101508.06;;;7.74;46.15
63190;BME280;49286;44.460;26.114;2023-03-30T05:47:16;101511.22;;;7.33;44.14
63190;BME280;49286;44.460;26.114;2023-03-30T05:49:42;101408.06;;;7.48;44.05
63190;BME280;49286;44.460;26.114;2023-03-30T05:52:08;101517.13;;;7.85;42.75
63190;BME280;49286;44.460;26.114;2023-03-30T05:54:33;101515.72;;;7.37;44.06
63190;BME280;49286;44.460;26.114;2023-03-30T05:56:59;101518.75;;;8.77;41.84
63190;BME280;49286;44.460;26.114;2023-03-30T05:59:25;101514.25;;;9.07;41.60
63190;BME280;49286;44.460;26.114;2023-03-30T06:01:50;101397.44;;;8.38;40.52
63190;BME280;49286;44.460;26.114;2023-03-30T06:04:16;101479.44;;;8.74;40.30
63190;BME280;49286;44.460;26.114;2023-03-30T06:06:42;101418.03;;;7.31;41.88
63190;BME280;49286;44.460;26.114;2023-03-30T06:09:07;101513.97;;;8.60;40.97
63190;BME280;49286;44.460;26.114;2023-03-30T06:11:33;101509.50;;;8.24;41.91
63190;BME280;49286;44.460;26.114;2023-03-30T06:13:58;101414.63;;;7.64;42.62
63190;BME280;49286;44.460;26.114;2023-03-30T06:16:24;101512.22;;;7.67;42.59
63190;BME280;49286;44.460;26.114;2023-03-30T06:18:50;101533.00;;;8.23;42.28
63190;BME280;49286;44.460;26.114;2023-03-30T06:21:16;101505.50;;;7.45;43.03
63190;BME280;49286;44.460;26.114;2023-03-30T06:23:42;101533.91;;;7.65;43.39
63190;BME280;49286;44.460;26.114;2023-03-30T06:26:07;101523.66;;;7.42;44.40
63190;BME280;49286;44.460;26.114;2023-03-30T06:28:34;101503.03;;;7.21;43.99
63190;BME280;49286;44.460;26.114;2023-03-30T06:31:00;101513.84;;;7.06;44.64
63190;BME280;49286;44.460;26.114;2023-03-30T06:33:27;101543.28;;;7.02;45.74
63190;BME280;49286;44.460;26.114;2023-03-30T06:35:54;101514.56;;;6.75;45.88
63190;BME280;49286;44.460;26.114;2023-03-30T06:38:21;101546.91;;;6.80;46.16
63190;BME280;49286;44.460;26.114;2023-03-30T06:40:47;101436.53;;;5.80;45.34
63190;BME280;49286;44.460;26.114;2023-03-30T06:43:23;101526.75;;;6.76;45.25
63190;BME280;49286;44.460;26.114;2023-03-30T06:45:51;101541.06;;;6.62;44.47
63190;BME280;49286;44.460;26.114;2023-03-30T06:48:18;101515.19;;;6.42;46.04
63190;BME280;49286;44.460;26.114;2023-03-30T06:50:47;101435.63;;;6.02;45.86
63190;BME280;49286;44.460;26.114;2023-03-30T06:53:13;101559.41;;;6.65;46.40
63190;BME280;49286;44.460;26.114;2023-03-30T06:55:39;101554.81;;;6.58;45.93
63190;BME280;49286;44.460;26.114;2023-03-30T06:58:06;101412.06;;;5.51;44.92
63190;BME280;49286;44.460;26.114;2023-03-30T07:00:31;101555.56;;;6.05;45.16
63190;BME280;49286;44.460;26.114;2023-03-30T07:02:57;101455.69;;;5.81;44.50
63190;BME280;49286;44.460;26.114;2023-03-30T07:05:23;101551.31;;;6.31;45.09
63190;BME280;49286;44.460;26.114;2023-03-30T07:07:50;101541.78;;;6.58;45.23
63190;BME280;49286;44.460;26.114;2023-03-30T07:10:17;101499.06;;;6.28;45.60
63190;BME280;49286;44.460;26.114;2023-03-30T07:12:43;101414.44;;;5.93;46.37
63190;BME280;49286;44.460;26.114;2023-03-30T07:15:09;101443.91;;;5.92;45.15
63190;BME280;49286;44.460;26.114;2023-03-30T07:17:35;101541.84;;;6.59;45.48
63190;BME280;49286;44.460;26.114;2023-03-30T07:20:02;101521.72;;;6.55;45.06
63190;BME280;49286;44.460;26.114;2023-03-30T07:22:28;101516.25;;;6.47;45.96
63190;BME280;49286;44.460;26.114;2023-03-30T07:24:54;101396.31;;;5.96;45.25
63190;BME280;49286;44.460;26.114;2023-03-30T07:27:20;101467.25;;;6.37;44.93
63190;BME280;49286;44.460;26.114;2023-03-30T07:29:45;101506.50;;;6.67;44.39
63190;BME280;49286;44.460;26.114;2023-03-30T07:32:11;101415.25;;;5.92;45.06
63190;BME280;49286;44.460;26.114;2023-03-30T07:34:36;101523.84;;;6.41;44.36
63190;BME280;49286;44.460;26.114;2023-03-30T07:37:02;101406.75;;;5.96;43.39
63190;BME280;49286;44.460;26.114;2023-03-30T07:39:27;101539.22;;;6.33;43.07
63190;BME280;49286;44.460;26.114;2023-03-30T07:41:53;101406.69;;;5.70;42.78
63190;BME280;49286;44.460;26.114;2023-03-30T07:44:19;101407.25;;;5.86;44.05
63190;BME280;49286;44.460;26.114;2023-03-30T07:46:45;101524.94;;;6.48;43.33
63190;BME280;49286;44.460;26.114;2023-03-30T07:49:10;101528.81;;;6.59;43.30
63190;BME280;49286;44.460;26.114;2023-03-30T07:51:37;101523.13;;;6.45;42.13
63190;BME280;49286;44.460;26.114;2023-03-30T07:54:02;101387.34;;;5.64;42.19
63190;BME280;49286;44.460;26.114;2023-03-30T07:56:29;101510.56;;;6.59;42.55
63190;BME280;49286;44.460;26.114;2023-03-30T07:58:57;101515.81;;;6.86;43.30
63190;BME280;49286;44.460;26.114;2023-03-30T08:01:23;101411.72;;;6.40;43.04
63190;BME280;49286;44.460;26.114;2023-03-30T08:03:48;101436.88;;;5.89;44.70
63190;BME280;49286;44.460;26.114;2023-03-30T08:06:14;101414.38;;;5.91;42.68
63190;BME280;49286;44.460;26.114;2023-03-30T08:08:40;101461.13;;;6.37;42.55
63190;BME280;49286;44.460;26.114;2023-03-30T08:11:07;101401.00;;;6.32;42.44
63190;BME280;49286;44.460;26.114;2023-03-30T08:13:35;101511.13;;;6.76;43.53
63190;BME280;49286;44.460;26.114;2023-03-30T08:16:01;101393.09;;;6.03;42.05
63190;BME280;49286;44.460;26.114;2023-03-30T08:18:27;101435.63;;;6.53;43.94
63190;BME280;49286;44.460;26.114;2023-03-30T08:20:53;101311.53;;;6.04;41.23
63190;BME280;49286;44.460;26.114;2023-03-30T08:23:19;101477.94;;;6.99;41.98
63190;BME280;49286;44.460;26.114;2023-03-30T08:25:45;101488.44;;;7.01;40.82
63190;BME280;49286;44.460;26.114;2023-03-30T08:28:15;101396.56;;;6.55;43.34
63190;BME280;49286;44.460;26.114;2023-03-30T08:30:40;101504.91;;;7.27;42.85
63190;BME280;49286;44.460;26.114;2023-03-30T08:33:07;101392.91;;;6.50;41.65
63190;BME280;49286;44.460;26.114;2023-03-30T08:35:33;101389.91;;;6.65;41.85
63190;BME280;49286;44.460;26.114;2023-03-30T08:37:59;101405.03;;;6.22;43.45
63190;BME280;49286;44.460;26.114;2023-03-30T08:40:24;101378.75;;;5.66;41.72
63190;BME280;49286;44.460;26.114;2023-03-30T08:45:36;101427.13;;;6.59;42.46
63190;BME280;49286;44.460;26.114;2023-03-30T08:48:05;101376.59;;;6.55;42.08
63190;BME280;49286;44.460;26.114;2023-03-30T08:50:34;101485.25;;;7.38;41.17
63190;BME280;49286;44.460;26.114;2023-03-30T08:53:02;101487.16;;;7.44;41.38
63190;BME280;49286;44.460;26.114;2023-03-30T08:55:46;101361.09;;;6.89;40.52
63190;BME280;49286;44.460;26.114;2023-03-30T09:04:03;101471.25;;;6.80;41.78
63190;BME280;49286;44.460;26.114;2023-03-30T09:06:50;101462.22;;;7.25;41.63
63190;BME280;49286;44.460;26.114;2023-03-30T09:09:18;101452.66;;;7.54;40.21
63190;BME280;49286;44.460;26.114;2023-03-30T09:11:49;101471.81;;;7.85;40.44
63190;BME280;49286;44.460;26.114;2023-03-30T09:14:32;101449.44;;;7.94;39.69
63190;BME280;49286;44.460;26.114;2023-03-30T09:17:09;101465.66;;;7.82;39.92
63190;BME280;49286;44.460;26.114;2023-03-30T09:20:07;101425.16;;;7.67;39.09
63190;BME280;49286;44.460;26.114;2023-03-30T09:22:41;101408.00;;;7.76;39.45
63190;BME280;49286;44.460;26.114;2023-03-30T09:25:16;101388.44;;;7.62;39.24
63190;BME280;49286;44.460;26.114;2023-03-30T09:27:59;101322.22;;;7.60;39.73
63190;BME280;49286;44.460;26.114;2023-03-30T09:30:52;101439.34;;;8.08;39.75
63190;BME280;49286;44.460;26.114;2023-03-30T09:33:44;101407.53;;;8.24;39.71
63190;BME280;49286;44.460;26.114;2023-03-30T09:36:16;101411.66;;;8.50;38.86
63190;BME280;49286;44.460;26.114;2023-03-30T09:38:43;101325.19;;;8.07;38.64
63190;BME280;49286;44.460;26.114;2023-03-30T09:43:55;101424.03;;;8.55;38.22
63190;BME280;49286;44.460;26.114;2023-03-30T09:46:22;101305.59;;;7.90;37.79
63190;BME280;49286;44.460;26.114;2023-03-30T09:48:48;101306.16;;;8.13;38.47
63190;BME280;49286;44.460;26.114;2023-03-30T09:51:26;101402.91;;;8.14;39.00
63190;BME280;49286;44.460;26.114;2023-03-30T09:53:59;101395.03;;;8.46;38.54
63190;BME280;49286;44.460;26.114;2023-03-30T09:56:28;101276.19;;;7.98;39.00
63190;BME280;49286;44.460;26.114;2023-03-30T10:02:08;101375.75;;;9.20;36.36
63190;BME280;49286;44.460;26.114;2023-03-30T10:07:49;101382.97;;;9.32;36.20
63190;BME280;49286;44.460;26.114;2023-03-30T10:12:48;101254.00;;;8.55;36.99
63190;BME280;49286;44.460;26.114;2023-03-30T10:15:20;101270.88;;;8.70;36.92
63190;BME280;49286;44.460;26.114;2023-03-30T10:17:47;101358.06;;;9.50;36.84
63190;BME280;49286;44.460;26.114;2023-03-30T10:20:22;101246.78;;;8.86;35.04
63190;BME280;49286;44.460;26.114;2023-03-30T10:25:22;101353.72;;;9.51;36.53
63190;BME280;49286;44.460;26.114;2023-03-30T10:27:50;101346.03;;;9.60;36.53
63190;BME280;49286;44.460;26.114;2023-03-30T10:30:19;101245.59;;;9.14;35.44
63190;BME280;49286;44.460;26.114;2023-03-30T10:32:48;101230.63;;;9.54;36.98
63190;BME280;49286;44.460;26.114;2023-03-30T10:35:21;101315.09;;;10.40;35.06
63190;BME280;49286;44.460;26.114;2023-03-30T10:37:51;101291.22;;;10.26;34.84
63190;BME280;49286;44.460;26.114;2023-03-30T10:42:49;101336.59;;;11.45;36.58
63190;BME280;49286;44.460;26.114;2023-03-30T10:45:26;101219.31;;;10.72;32.32
63190;BME280;49286;44.460;26.114;2023-03-30T10:55:42;101288.38;;;12.42;33.03
63190;BME280;49286;44.460;26.114;2023-03-30T11:01:00;101297.50;;;13.03;33.50
63190;BME280;49286;44.460;26.114;2023-03-30T11:03:31;101180.59;;;12.73;31.88
63190;BME280;49286;44.460;26.114;2023-03-30T11:06:20;101149.88;;;12.75;30.86
63190;BME280;49286;44.460;26.114;2023-03-30T11:08:50;101145.47;;;12.63;31.92
63190;BME280;49286;44.460;26.114;2023-03-30T11:11:20;101154.97;;;12.31;32.59
63190;BME280;49286;44.460;26.114;2023-03-30T11:14:09;101253.47;;;12.74;31.68
63190;BME280;49286;44.460;26.114;2023-03-30T11:16:46;101123.53;;;12.63;31.35
63190;BME280;49286;44.460;26.114;2023-03-30T11:19:33;101228.22;;;13.32;31.89
63190;BME280;49286;44.460;26.114;2023-03-30T11:24:53;101226.50;;;13.93;32.04
63190;BME280;49286;44.460;26.114;2023-03-30T11:27:35;101141.97;;;12.67;31.29
63190;BME280;49286;44.460;26.114;2023-03-30T11:30:26;101108.69;;;13.11;30.97
63190;BME280;49286;44.460;26.114;2023-03-30T11:32:57;101129.81;;;13.60;31.66
63190;BME280;49286;44.460;26.114;2023-03-30T11:35:45;101214.19;;;13.56;30.94
63190;BME280;49286;44.460;26.114;2023-03-30T11:38:17;101208.91;;;13.86;30.95
63190;BME280;49286;44.460;26.114;2023-03-30T11:40:50;101177.25;;;13.48;32.25
63190;BME280;49286;44.460;26.114;2023-03-30T11:43:19;101192.09;;;12.98;31.04
63190;BME280;49286;44.460;26.114;2023-03-30T11:54:38;101178.97;;;14.00;30.20
63190;BME280;49286;44.460;26.114;2023-03-30T11:59:49;101177.19;;;13.25;30.42
63190;BME280;49286;44.460;26.114;2023-03-30T12:04:58;101171.88;;;12.91;30.46
63190;BME280;49286;44.460;26.114;2023-03-30T12:07:39;101168.38;;;12.89;31.34
63190;BME280;49286;44.460;26.114;2023-03-30T12:11:26;101152.59;;;13.03;30.43
63190;BME280;49286;44.460;26.114;2023-03-30T12:13:17;101042.59;;;12.05;31.17
63190;BME280;49286;44.460;26.114;2023-03-30T12:15:45;101143.75;;;12.72;32.30
63190;BME280;49286;44.460;26.114;2023-03-30T12:21:32;101052.38;;;12.44;31.53
63190;BME280;49286;44.460;26.114;2023-03-30T12:26:47;101009.34;;;12.29;30.77
63190;BME280;49286;44.460;26.114;2023-03-30T12:29:15;101034.91;;;12.70;31.73
63190;BME280;49286;44.460;26.114;2023-03-30T12:34:35;101059.50;;;12.81;31.61
63190;BME280;49286;44.460;26.114;2023-03-30T12:37:05;101134.19;;;13.57;30.33
63190;BME280;49286;44.460;26.114;2023-03-30T12:39:41;101135.06;;;13.48;30.80
63190;BME280;49286;44.460;26.114;2023-03-30T12:50:37;101111.34;;;13.29;29.36
63190;BME280;49286;44.460;26.114;2023-03-30T13:03:54;101096.41;;;13.65;31.87
63190;BME280;49286;44.460;26.114;2023-03-30T13:06:30;101084.09;;;13.03;31.04
63190;BME280;49286;44.460;26.114;2023-03-30T13:11:43;101092.00;;;13.20;30.27
63190;BME280;49286;44.460;26.114;2023-03-30T13:24:48;101062.13;;;13.10;29.57
63190;BME280;49286;44.460;26.114;2023-03-30T13:27:23;101064.78;;;13.16;29.94
63190;BME280;49286;44.460;26.114;2023-03-30T13:32:47;101031.41;;;13.17;29.59
63190;BME280;49286;44.460;26.114;2023-03-30T13:38:29;100949.72;;;12.20;30.14
63190;BME280;49286;44.460;26.114;2023-03-30T13:49:31;101051.56;;;12.68;29.52
63190;BME280;49286;44.460;26.114;2023-03-30T13:52:08;101039.28;;;12.63;30.05
63190;BME280;49286;44.460;26.114;2023-03-30T13:54:37;101018.22;;;12.84;29.94
63190;BME280;49286;44.460;26.114;2023-03-30T13:57:21;100962.91;;;12.67;30.73
63190;BME280;49286;44.460;26.114;2023-03-30T13:59:58;101011.19;;;12.76;29.66
63190;BME280;49286;44.460;26.114;2023-03-30T14:02:28;101029.63;;;12.99;29.82
63190;BME280;49286;44.460;26.114;2023-03-30T14:05:11;101029.63;;;12.62;29.71
63190;BME280;49286;44.460;26.114;2023-03-30T14:07:41;101032.25;;;12.85;30.38
63190;BME280;49286;44.460;26.114;2023-03-30T14:10:13;101038.41;;;12.70;30.45
63190;BME280;49286;44.460;26.114;2023-03-30T14:12:40;100985.72;;;12.55;29.70
63190;BME280;49286;44.460;26.114;2023-03-30T14:15:35;101025.19;;;12.50;29.87
63190;BME280;49286;44.460;26.114;2023-03-30T14:18:03;101014.72;;;12.84;30.58
63190;BME280;49286;44.460;26.114;2023-03-30T14:20:55;101020.00;;;12.88;30.77
63190;BME280;49286;44.460;26.114;2023-03-30T14:23:57;101020.78;;;12.29;31.05
63190;BME280;49286;44.460;26.114;2023-03-30T14:26:26;101005.91;;;12.68;30.95
63190;BME280;49286;44.460;26.114;2023-03-30T14:28:59;101018.22;;;12.60;31.40
63190;BME280;49286;44.460;26.114;2023-03-30T14:31:36;100904.06;;;12.01;30.88
63190;BME280;49286;44.460;26.114;2023-03-30T14:34:29;100973.44;;;12.37;31.01
63190;BME280;49286;44.460;26.114;2023-03-30T14:36:58;100891.78;;;11.98;29.82
63190;BME280;49286;44.460;26.114;2023-03-30T14:39:25;100996.28;;;12.81;30.10
63190;BME280;49286;44.460;26.114;2023-03-30T14:41:51;100874.28;;;12.03;30.45
63190;BME280;49286;44.460;26.114;2023-03-30T14:44:20;100969.91;;;12.27;30.35
63190;BME280;49286;44.460;26.114;2023-03-30T14:46:51;100979.50;;;12.22;30.74
63190;BME280;49286;44.460;26.114;2023-03-30T14:49:29;100980.47;;;12.65;30.65
63190;BME280;49286;44.460;26.114;2023-03-30T14:52:46;100976.97;;;12.57;32.48
63190;BME280;49286;44.460;26.114;2023-03-30T14:55:21;100847.06;;;11.88;31.57
63190;BME280;49286;44.460;26.114;2023-03-30T14:57:48;100961.13;;;12.30;31.88
63190;BME280;49286;44.460;26.114;2023-03-30T15:00:17;100917.25;;;12.21;30.11
63190;BME280;49286;44.460;26.114;2023-03-30T15:02:46;100942.69;;;12.19;30.49
63190;BME280;49286;44.460;26.114;2023-03-30T15:05:17;100845.31;;;11.88;30.23
63190;BME280;49286;44.460;26.114;2023-03-30T15:07:48;100854.84;;;11.57;31.01
63190;BME280;49286;44.460;26.114;2023-03-30T15:10:25;100846.03;;;11.44;30.48
63190;BME280;49286;44.460;26.114;2023-03-30T15:12:52;100965.53;;;12.43;31.85
63190;BME280;49286;44.460;26.114;2023-03-30T15:15:25;100934.81;;;12.28;31.53
63190;BME280;49286;44.460;26.114;2023-03-30T15:17:51;100898.78;;;11.87;31.53
63190;BME280;49286;44.460;26.114;2023-03-30T15:20:17;100868.84;;;11.50;30.63
63190;BME280;49286;44.460;26.114;2023-03-30T15:22:48;100947.03;;;12.08;30.67